sensor_id;sensor_type;location;lat;lon;timestamp;P1;durP1;ratioP1;P2;durP2;ratioP2
64834;SDS011;51293;59.296;18.006;2022-07-04T00:00:18;5.15;;;3.40;;
64834;SDS011;51293;59.296;18.006;2022-07-04T00:02:44;5.57;;;3.10;;
64834;SDS011;51293;59.296;18.006;2022-07-04T00:05:10;6.68;;;2.78;;
64834;SDS011;51293;59.296;18.006;2022-07-04T00:07:36;5.47;;;2.92;;
64834;SDS011;51293;59.296;18.006;2022-07-04T00:10:06;6.72;;;3.00;;
64834;SDS011;51293;59.296;18.006;2022-07-04T00:12:33;10.68;;;3.17;;
64834;SDS011;51293;59.296;18.006;2022-07-04T00:14:58;4.47;;;2.88;;
64834;SDS011;51293;59.296;18.006;2022-07-04T00:17:24;5.05;;;2.92;;
64834;SDS011;51293;59.296;18.006;2022-07-04T00:19:49;7.20;;;3.15;;
64834;SDS011;51293;59.296;18.006;2022-07-04T00:22:15;4.57;;;2.83;;
64834;SDS011;51293;59.296;18.006;2022-07-04T00:24:40;6.10;;;2.90;;
64834;SDS011;51293;59.296;18.006;2022-07-04T00:27:06;6.88;;;3.20;;
64834;SDS011;51293;59.296;18.006;2022-07-04T00:29:31;5.40;;;3.10;;
64834;SDS011;51293;59.296;18.006;2022-07-04T00:31:58;5.32;;;3.10;;
64834;SDS011;51293;59.296;18.006;2022-07-04T00:34:24;4.20;;;3.00;;
64834;SDS011;51293;59.296;18.006;2022-07-04T00:36:49;6.97;;;3.00;;
64834;SDS011;51293;59.296;18.006;2022-07-04T00:39:15;6.10;;;3.00;;
64834;SDS011;51293;59.296;18.006;2022-07-04T00:41:40;4.68;;;3.03;;
64834;SDS011;51293;59.296;18.006;2022-07-04T00:44:06;5.93;;;3.20;;
64834;SDS011;51293;59.296;18.006;2022-07-04T00:46:34;4.95;;;3.00;;
64834;SDS011;51293;59.296;18.006;2022-07-04T00:48:59;8.98;;;3.15;;
64834;SDS011;51293;59.296;18.006;2022-07-04T00:51:25;3.85;;;2.80;;
64834;SDS011;51293;59.296;18.006;2022-07-04T00:53:55;3.88;;;2.90;;
64834;SDS011;51293;59.296;18.006;2022-07-04T00:56:21;6.28;;;3.00;;
64834;SDS011;51293;59.296;18.006;2022-07-04T00:58:48;6.85;;;3.30;;
64834;SDS011;51293;59.296;18.006;2022-07-04T01:01:13;6.00;;;2.70;;
64834;SDS011;51293;59.296;18.006;2022-07-04T01:03:39;6.28;;;2.90;;
64834;SDS011;51293;59.296;18.006;2022-07-04T01:06:04;4.38;;;2.58;;
64834;SDS011;51293;59.296;18.006;2022-07-04T01:08:34;6.13;;;2.80;;
64834;SDS011;51293;59.296;18.006;2022-07-04T01:11:02;4.45;;;2.88;;
64834;SDS011;51293;59.296;18.006;2022-07-04T01:13:27;6.00;;;3.10;;
64834;SDS011;51293;59.296;18.006;2022-07-04T01:15:53;5.15;;;2.70;;
64834;SDS011;51293;59.296;18.006;2022-07-04T01:18:18;5.15;;;2.70;;
64834;SDS011;51293;59.296;18.006;2022-07-04T01:20:44;4.57;;;2.70;;
64834;SDS011;51293;59.296;18.006;2022-07-04T01:23:09;5.32;;;2.67;;
64834;SDS011;51293;59.296;18.006;2022-07-04T01:25:35;5.72;;;3.00;;
64834;SDS011;51293;59.296;18.006;2022-07-04T01:28:00;5.72;;;2.50;;
64834;SDS011;51293;59.296;18.006;2022-07-04T01:30:27;3.75;;;2.65;;
64834;SDS011;51293;59.296;18.006;2022-07-04T01:32:53;4.32;;;2.63;;
64834;SDS011;51293;59.296;18.006;2022-07-04T01:35:19;4.20;;;2.50;;
64834;SDS011;51293;59.296;18.006;2022-07-04T01:37:45;4.25;;;2.88;;
64834;SDS011;51293;59.296;18.006;2022-07-04T01:40:10;5.00;;;2.80;;
64834;SDS011;51293;59.296;18.006;2022-07-04T01:42:37;3.80;;;2.75;;
64834;SDS011;51293;59.296;18.006;2022-07-04T01:45:03;5.05;;;2.50;;
64834;SDS011;51293;59.296;18.006;2022-07-04T01:47:29;5.55;;;2.53;;
64834;SDS011;51293;59.296;18.006;2022-07-04T01:49:54;3.50;;;2.47;;
64834;SDS011;51293;59.296;18.006;2022-07-04T01:52:20;4.10;;;2.65;;
64834;SDS011;51293;59.296;18.006;2022-07-04T01:54:45;3.45;;;2.67;;
64834;SDS011;51293;59.296;18.006;2022-07-04T01:57:11;4.85;;;2.70;;
64834;SDS011;51293;59.296;18.006;2022-07-04T01:59:37;5.10;;;2.72;;
64834;SDS011;51293;59.296;18.006;2022-07-04T02:02:22;4.25;;;2.42;;
64834;SDS011;51293;59.296;18.006;2022-07-04T02:04:48;5.50;;;2.60;;
64834;SDS011;51293;59.296;18.006;2022-07-04T02:07:14;4.32;;;2.60;;
64834;SDS011;51293;59.296;18.006;2022-07-04T02:09:39;5.28;;;2.40;;
64834;SDS011;51293;59.296;18.006;2022-07-04T02:12:04;3.00;;;2.50;;
64834;SDS011;51293;59.296;18.006;2022-07-04T02:14:49;4.07;;;2.10;;
64834;SDS011;51293;59.296;18.006;2022-07-04T02:17:14;3.08;;;2.45;;
64834;SDS011;51293;59.296;18.006;2022-07-04T02:19:39;4.85;;;2.30;;
64834;SDS011;51293;59.296;18.006;2022-07-04T02:22:05;4.50;;;2.50;;
64834;SDS011;51293;59.296;18.006;2022-07-04T02:24:30;6.25;;;2.40;;
64834;SDS011;51293;59.296;18.006;2022-07-04T02:26:55;3.60;;;2.28;;
64834;SDS011;51293;59.296;18.006;2022-07-04T02:29:21;6.25;;;2.47;;
64834;SDS011;51293;59.296;18.006;2022-07-04T02:31:46;3.88;;;2.40;;
64834;SDS011;51293;59.296;18.006;2022-07-04T02:34:12;3.22;;;2.38;;
64834;SDS011;51293;59.296;18.006;2022-07-04T02:36:37;4.28;;;2.20;;
64834;SDS011;51293;59.296;18.006;2022-07-04T02:39:03;3.40;;;2.40;;
64834;SDS011;51293;59.296;18.006;2022-07-04T02:41:30;6.13;;;2.08;;
64834;SDS011;51293;59.296;18.006;2022-07-04T02:43:56;5.50;;;2.30;;
64834;SDS011;51293;59.296;18.006;2022-07-04T02:46:21;4.88;;;2.28;;
64834;SDS011;51293;59.296;18.006;2022-07-04T02:48:47;5.38;;;2.40;;
64834;SDS011;51293;59.296;18.006;2022-07-04T02:51:12;4.68;;;2.30;;
64834;SDS011;51293;59.296;18.006;2022-07-04T02:53:38;5.15;;;2.22;;
64834;SDS011;51293;59.296;18.006;2022-07-04T02:56:03;6.55;;;2.30;;
64834;SDS011;51293;59.296;18.006;2022-07-04T02:58:30;4.18;;;2.08;;
64834;SDS011;51293;59.296;18.006;2022-07-04T03:00:56;2.60;;;2.22;;
64834;SDS011;51293;59.296;18.006;2022-07-04T03:03:22;3.35;;;2.10;;
64834;SDS011;51293;59.296;18.006;2022-07-04T03:05:47;3.72;;;2.03;;
64834;SDS011;51293;59.296;18.006;2022-07-04T03:08:12;4.43;;;2.20;;
64834;SDS011;51293;59.296;18.006;2022-07-04T03:10:38;4.65;;;2.05;;
64834;SDS011;51293;59.296;18.006;2022-07-04T03:13:03;3.83;;;2.03;;
64834;SDS011;51293;59.296;18.006;2022-07-04T03:15:29;3.53;;;2.10;;
64834;SDS011;51293;59.296;18.006;2022-07-04T03:17:54;3.40;;;2.10;;
64834;SDS011;51293;59.296;18.006;2022-07-04T03:20:19;4.82;;;2.10;;
64834;SDS011;51293;59.296;18.006;2022-07-04T03:22:45;6.10;;;2.40;;
64834;SDS011;51293;59.296;18.006;2022-07-04T03:25:10;4.10;;;2.28;;
64834;SDS011;51293;59.296;18.006;2022-07-04T03:27:36;3.92;;;2.20;;
64834;SDS011;51293;59.296;18.006;2022-07-04T03:30:01;3.60;;;2.22;;
64834;SDS011;51293;59.296;18.006;2022-07-04T03:32:27;5.05;;;2.25;;
64834;SDS011;51293;59.296;18.006;2022-07-04T03:34:52;6.63;;;2.40;;
64834;SDS011;51293;59.296;18.006;2022-07-04T03:37:18;3.45;;;2.22;;
64834;SDS011;51293;59.296;18.006;2022-07-04T03:39:43;3.58;;;2.30;;
64834;SDS011;51293;59.296;18.006;2022-07-04T03:42:08;4.35;;;2.13;;
64834;SDS011;51293;59.296;18.006;2022-07-04T03:44:34;2.47;;;2.10;;
64834;SDS011;51293;59.296;18.006;2022-07-04T03:47:00;3.70;;;2.10;;
64834;SDS011;51293;59.296;18.006;2022-07-04T03:49:26;5.07;;;2.13;;
64834;SDS011;51293;59.296;18.006;2022-07-04T03:51:51;3.25;;;1.98;;
64834;SDS011;51293;59.296;18.006;2022-07-04T03:54:16;5.90;;;2.30;;
64834;SDS011;51293;59.296;18.006;2022-07-04T03:56:42;5.90;;;2.50;;
64834;SDS011;51293;59.296;18.006;2022-07-04T03:59:07;3.33;;;2.17;;
64834;SDS011;51293;59.296;18.006;2022-07-04T04:01:32;3.92;;;2.10;;
64834;SDS011;51293;59.296;18.006;2022-07-04T04:03:58;4.10;;;2.10;;
64834;SDS011;51293;59.296;18.006;2022-07-04T04:06:42;3.58;;;2.30;;
64834;SDS011;51293;59.296;18.006;2022-07-04T04:09:08;3.50;;;2.20;;
64834;SDS011;51293;59.296;18.006;2022-07-04T04:11:38;3.65;;;2.10;;
64834;SDS011;51293;59.296;18.006;2022-07-04T04:14:03;3.42;;;2.08;;
64834;SDS011;51293;59.296;18.006;2022-07-04T04:16:29;5.82;;;2.25;;
64834;SDS011;51293;59.296;18.006;2022-07-04T04:18:54;3.25;;;2.30;;
64834;SDS011;51293;59.296;18.006;2022-07-04T04:21:19;4.55;;;2.20;;
64834;SDS011;51293;59.296;18.006;2022-07-04T04:23:45;3.70;;;2.08;;
64834;SDS011;51293;59.296;18.006;2022-07-04T04:26:10;4.63;;;1.95;;
64834;SDS011;51293;59.296;18.006;2022-07-04T04:28:36;4.47;;;2.17;;
64834;SDS011;51293;59.296;18.006;2022-07-04T04:31:01;4.20;;;2.20;;
64834;SDS011;51293;59.296;18.006;2022-07-04T04:33:27;3.72;;;2.00;;
64834;SDS011;51293;59.296;18.006;2022-07-04T04:35:52;5.90;;;2.30;;
64834;SDS011;51293;59.296;18.006;2022-07-04T04:38:17;4.00;;;1.90;;
64834;SDS011;51293;59.296;18.006;2022-07-04T04:40:43;4.65;;;1.90;;
64834;SDS011;51293;59.296;18.006;2022-07-04T04:43:08;5.15;;;2.00;;
64834;SDS011;51293;59.296;18.006;2022-07-04T04:45:34;6.43;;;2.10;;
64834;SDS011;51293;59.296;18.006;2022-07-04T04:47:59;4.20;;;1.80;;
64834;SDS011;51293;59.296;18.006;2022-07-04T04:50:24;2.53;;;1.90;;
64834;SDS011;51293;59.296;18.006;2022-07-04T04:52:50;4.53;;;1.60;;
64834;SDS011;51293;59.296;18.006;2022-07-04T04:55:15;4.05;;;1.60;;
64834;SDS011;51293;59.296;18.006;2022-07-04T04:57:41;5.68;;;1.75;;
64834;SDS011;51293;59.296;18.006;2022-07-04T05:00:06;3.33;;;1.60;;
64834;SDS011;51293;59.296;18.006;2022-07-04T05:02:32;4.00;;;1.60;;
64834;SDS011;51293;59.296;18.006;2022-07-04T05:04:57;4.22;;;1.60;;
64834;SDS011;51293;59.296;18.006;2022-07-04T05:07:23;2.83;;;1.50;;
64834;SDS011;51293;59.296;18.006;2022-07-04T05:09:48;2.50;;;1.40;;
64834;SDS011;51293;59.296;18.006;2022-07-04T05:12:14;4.50;;;1.40;;
64834;SDS011;51293;59.296;18.006;2022-07-04T05:14:40;3.70;;;1.60;;
64834;SDS011;51293;59.296;18.006;2022-07-04T05:17:05;7.65;;;1.80;;
64834;SDS011;51293;59.296;18.006;2022-07-04T05:19:31;5.68;;;1.58;;
64834;SDS011;51293;59.296;18.006;2022-07-04T05:21:56;2.42;;;1.50;;
64834;SDS011;51293;59.296;18.006;2022-07-04T05:24:22;1.17;;;1.08;;
64834;SDS011;51293;59.296;18.006;2022-07-04T05:26:47;3.50;;;1.73;;
64834;SDS011;51293;59.296;18.006;2022-07-04T05:29:13;4.78;;;1.77;;
64834;SDS011;51293;59.296;18.006;2022-07-04T05:31:38;3.58;;;1.52;;
64834;SDS011;51293;59.296;18.006;2022-07-04T05:34:03;3.40;;;1.50;;
64834;SDS011;51293;59.296;18.006;2022-07-04T05:36:29;7.20;;;1.70;;
64834;SDS011;51293;59.296;18.006;2022-07-04T05:38:55;3.90;;;1.70;;
64834;SDS011;51293;59.296;18.006;2022-07-04T05:41:21;3.50;;;1.50;;
64834;SDS011;51293;59.296;18.006;2022-07-04T05:43:47;5.63;;;1.60;;
64834;SDS011;51293;59.296;18.006;2022-07-04T05:46:12;4.70;;;1.50;;
64834;SDS011;51293;59.296;18.006;2022-07-04T05:48:37;1.65;;;1.40;;
64834;SDS011;51293;59.296;18.006;2022-07-04T05:51:03;7.20;;;1.50;;
64834;SDS011;51293;59.296;18.006;2022-07-04T05:53:29;5.07;;;1.50;;
64834;SDS011;51293;59.296;18.006;2022-07-04T05:55:54;2.60;;;1.50;;
64834;SDS011;51293;59.296;18.006;2022-07-04T05:58:19;5.53;;;1.60;;
64834;SDS011;51293;59.296;18.006;2022-07-04T06:00:45;3.35;;;1.50;;
64834;SDS011;51293;59.296;18.006;2022-07-04T06:03:10;2.22;;;1.52;;
64834;SDS011;51293;59.296;18.006;2022-07-04T06:05:36;6.18;;;1.58;;
64834;SDS011;51293;59.296;18.006;2022-07-04T06:08:01;3.65;;;1.65;;
64834;SDS011;51293;59.296;18.006;2022-07-04T06:10:27;3.17;;;1.45;;
64834;SDS011;51293;59.296;18.006;2022-07-04T06:12:53;3.00;;;1.52;;
64834;SDS011;51293;59.296;18.006;2022-07-04T06:15:18;3.75;;;1.70;;
64834;SDS011;51293;59.296;18.006;2022-07-04T06:17:44;3.60;;;1.60;;
64834;SDS011;51293;59.296;18.006;2022-07-04T06:20:09;3.67;;;1.58;;
64834;SDS011;51293;59.296;18.006;2022-07-04T06:22:42;3.03;;;1.65;;
64834;SDS011;51293;59.296;18.006;2022-07-04T06:25:16;3.97;;;1.90;;
64834;SDS011;51293;59.296;18.006;2022-07-04T06:27:43;3.60;;;1.63;;
64834;SDS011;51293;59.296;18.006;2022-07-04T06:30:10;5.28;;;1.90;;
64834;SDS011;51293;59.296;18.006;2022-07-04T06:32:46;4.65;;;1.65;;
64834;SDS011;51293;59.296;18.006;2022-07-04T06:35:13;3.00;;;1.70;;
64834;SDS011;51293;59.296;18.006;2022-07-04T06:38:00;2.63;;;1.35;;
64834;SDS011;51293;59.296;18.006;2022-07-04T06:40:26;2.38;;;1.55;;
64834;SDS011;51293;59.296;18.006;2022-07-04T06:42:51;3.58;;;1.55;;
64834;SDS011;51293;59.296;18.006;2022-07-04T06:45:17;3.05;;;1.60;;
64834;SDS011;51293;59.296;18.006;2022-07-04T06:47:42;2.88;;;1.70;;
64834;SDS011;51293;59.296;18.006;2022-07-04T06:50:08;2.85;;;1.67;;
64834;SDS011;51293;59.296;18.006;2022-07-04T06:52:34;2.75;;;1.63;;
64834;SDS011;51293;59.296;18.006;2022-07-04T06:54:59;3.72;;;1.88;;
64834;SDS011;51293;59.296;18.006;2022-07-04T06:57:25;4.03;;;1.95;;
64834;SDS011;51293;59.296;18.006;2022-07-04T06:59:51;3.03;;;1.80;;
64834;SDS011;51293;59.296;18.006;2022-07-04T07:02:16;3.63;;;1.80;;
64834;SDS011;51293;59.296;18.006;2022-07-04T07:04:41;2.10;;;1.60;;
64834;SDS011;51293;59.296;18.006;2022-07-04T07:07:08;2.42;;;1.70;;
64834;SDS011;51293;59.296;18.006;2022-07-04T07:09:34;3.05;;;1.92;;
64834;SDS011;51293;59.296;18.006;2022-07-04T07:11:59;5.35;;;2.10;;
64834;SDS011;51293;59.296;18.006;2022-07-04T07:14:25;3.92;;;1.95;;
64834;SDS011;51293;59.296;18.006;2022-07-04T07:16:50;4.72;;;1.88;;
64834;SDS011;51293;59.296;18.006;2022-07-04T07:19:16;2.83;;;1.80;;
64834;SDS011;51293;59.296;18.006;2022-07-04T07:21:41;4.75;;;2.00;;
64834;SDS011;51293;59.296;18.006;2022-07-04T07:24:06;4.97;;;2.10;;
64834;SDS011;51293;59.296;18.006;2022-07-04T07:26:32;6.40;;;2.20;;
64834;SDS011;51293;59.296;18.006;2022-07-04T07:28:57;4.22;;;2.10;;
64834;SDS011;51293;59.296;18.006;2022-07-04T07:31:23;2.80;;;1.85;;
64834;SDS011;51293;59.296;18.006;2022-07-04T07:33:48;3.97;;;2.33;;
64834;SDS011;51293;59.296;18.006;2022-07-04T07:36:13;2.20;;;1.70;;
64834;SDS011;51293;59.296;18.006;2022-07-04T07:38:39;5.15;;;1.80;;
64834;SDS011;51293;59.296;18.006;2022-07-04T07:41:08;5.45;;;2.08;;
64834;SDS011;51293;59.296;18.006;2022-07-04T07:43:34;2.67;;;1.70;;
64834;SDS011;51293;59.296;18.006;2022-07-04T07:45:59;5.40;;;2.10;;
64834;SDS011;51293;59.296;18.006;2022-07-04T07:48:25;3.28;;;1.48;;
64834;SDS011;51293;59.296;18.006;2022-07-04T07:50:51;5.95;;;1.90;;
64834;SDS011;51293;59.296;18.006;2022-07-04T07:53:17;2.38;;;1.40;;
64834;SDS011;51293;59.296;18.006;2022-07-04T07:55:43;7.28;;;1.90;;
64834;SDS011;51293;59.296;18.006;2022-07-04T07:58:09;4.97;;;1.90;;
64834;SDS011;51293;59.296;18.006;2022-07-04T08:00:34;3.13;;;1.45;;
64834;SDS011;51293;59.296;18.006;2022-07-04T08:02:59;2.78;;;1.40;;
64834;SDS011;51293;59.296;18.006;2022-07-04T08:05:43;3.85;;;1.45;;
64834;SDS011;51293;59.296;18.006;2022-07-04T08:08:08;2.85;;;1.50;;
64834;SDS011;51293;59.296;18.006;2022-07-04T08:10:35;4.30;;;1.58;;
64834;SDS011;51293;59.296;18.006;2022-07-04T08:13:02;2.60;;;1.50;;
64834;SDS011;51293;59.296;18.006;2022-07-04T08:15:28;4.22;;;1.63;;
64834;SDS011;51293;59.296;18.006;2022-07-04T08:17:53;3.85;;;1.50;;
64834;SDS011;51293;59.296;18.006;2022-07-04T08:20:19;2.45;;;1.38;;
64834;SDS011;51293;59.296;18.006;2022-07-04T08:22:44;3.88;;;1.27;;
64834;SDS011;51293;59.296;18.006;2022-07-04T08:25:10;2.63;;;1.45;;
64834;SDS011;51293;59.296;18.006;2022-07-04T08:27:35;3.55;;;1.50;;
64834;SDS011;51293;59.296;18.006;2022-07-04T08:30:00;3.03;;;1.50;;
64834;SDS011;51293;59.296;18.006;2022-07-04T08:32:26;3.13;;;1.40;;
64834;SDS011;51293;59.296;18.006;2022-07-04T08:34:51;4.35;;;1.40;;
64834;SDS011;51293;59.296;18.006;2022-07-04T08:37:19;3.25;;;1.27;;
64834;SDS011;51293;59.296;18.006;2022-07-04T08:39:45;4.85;;;1.55;;
64834;SDS011;51293;59.296;18.006;2022-07-04T08:42:12;1.80;;;1.30;;
64834;SDS011;51293;59.296;18.006;2022-07-04T08:44:42;2.55;;;1.40;;
64834;SDS011;51293;59.296;18.006;2022-07-04T08:47:12;2.58;;;1.23;;
64834;SDS011;51293;59.296;18.006;2022-07-04T08:49:44;2.22;;;1.30;;
64834;SDS011;51293;59.296;18.006;2022-07-04T08:52:17;1.75;;;1.10;;
64834;SDS011;51293;59.296;18.006;2022-07-04T08:54:52;2.78;;;1.30;;
64834;SDS011;51293;59.296;18.006;2022-07-04T08:57:36;3.40;;;1.40;;
64834;SDS011;51293;59.296;18.006;2022-07-04T09:00:25;3.13;;;1.30;;
64834;SDS011;51293;59.296;18.006;2022-07-04T09:02:50;5.22;;;1.40;;
64834;SDS011;51293;59.296;18.006;2022-07-04T09:05:16;5.95;;;1.55;;
64834;SDS011;51293;59.296;18.006;2022-07-04T09:07:42;1.77;;;1.20;;
64834;SDS011;51293;59.296;18.006;2022-07-04T09:10:08;3.17;;;1.30;;
64834;SDS011;51293;59.296;18.006;2022-07-04T09:12:34;1.42;;;1.25;;
64834;SDS011;51293;59.296;18.006;2022-07-04T09:14:59;4.15;;;1.23;;
64834;SDS011;51293;59.296;18.006;2022-07-04T09:17:26;2.97;;;1.20;;
64834;SDS011;51293;59.296;18.006;2022-07-04T09:20:13;2.13;;;1.20;;
64834;SDS011;51293;59.296;18.006;2022-07-04T09:22:40;2.15;;;1.20;;
64834;SDS011;51293;59.296;18.006;2022-07-04T09:25:06;2.88;;;1.20;;
64834;SDS011;51293;59.296;18.006;2022-07-04T09:27:33;2.97;;;1.42;;
64834;SDS011;51293;59.296;18.006;2022-07-04T09:30:03;1.88;;;1.20;;
64834;SDS011;51293;59.296;18.006;2022-07-04T09:32:33;3.83;;;1.10;;
64834;SDS011;51293;59.296;18.006;2022-07-04T09:35:00;2.50;;;1.10;;
64834;SDS011;51293;59.296;18.006;2022-07-04T09:42:49;3.25;;;1.30;;
64834;SDS011;51293;59.296;18.006;2022-07-04T09:45:15;2.35;;;1.00;;
64834;SDS011;51293;59.296;18.006;2022-07-04T09:47:41;2.90;;;1.13;;
64834;SDS011;51293;59.296;18.006;2022-07-04T09:55:34;3.72;;;1.25;;
64834;SDS011;51293;59.296;18.006;2022-07-04T09:58:05;4.43;;;1.20;;
64834;SDS011;51293;59.296;18.006;2022-07-04T10:00:35;2.65;;;1.27;;
64834;SDS011;51293;59.296;18.006;2022-07-04T10:03:21;2.15;;;1.13;;
64834;SDS011;51293;59.296;18.006;2022-07-04T10:06:10;2.08;;;1.20;;
64834;SDS011;51293;59.296;18.006;2022-07-04T10:08:41;2.95;;;1.25;;
64834;SDS011;51293;59.296;18.006;2022-07-04T10:11:08;3.65;;;1.40;;
64834;SDS011;51293;59.296;18.006;2022-07-04T10:13:34;6.70;;;1.60;;
64834;SDS011;51293;59.296;18.006;2022-07-04T10:16:00;4.22;;;1.75;;
64834;SDS011;51293;59.296;18.006;2022-07-04T10:18:26;2.38;;;1.33;;
64834;SDS011;51293;59.296;18.006;2022-07-04T10:20:52;2.58;;;1.48;;
64834;SDS011;51293;59.296;18.006;2022-07-04T10:23:20;3.92;;;1.45;;
64834;SDS011;51293;59.296;18.006;2022-07-04T10:25:46;3.80;;;1.58;;
64834;SDS011;51293;59.296;18.006;2022-07-04T10:28:13;4.90;;;1.33;;
64834;SDS011;51293;59.296;18.006;2022-07-04T10:30:39;6.05;;;1.35;;
64834;SDS011;51293;59.296;18.006;2022-07-04T10:33:06;2.85;;;1.35;;
64834;SDS011;51293;59.296;18.006;2022-07-04T10:35:50;4.50;;;1.50;;
64834;SDS011;51293;59.296;18.006;2022-07-04T10:38:19;2.63;;;1.40;;
64834;SDS011;51293;59.296;18.006;2022-07-04T10:40:47;2.50;;;1.30;;
64834;SDS011;51293;59.296;18.006;2022-07-04T10:48:47;2.47;;;1.40;;
64834;SDS011;51293;59.296;18.006;2022-07-04T10:51:13;3.17;;;1.40;;
64834;SDS011;51293;59.296;18.006;2022-07-04T10:54:00;7.85;;;1.88;;
64834;SDS011;51293;59.296;18.006;2022-07-04T10:56:31;6.28;;;1.95;;
64834;SDS011;51293;59.296;18.006;2022-07-04T10:59:00;3.95;;;1.80;;
64834;SDS011;51293;59.296;18.006;2022-07-04T11:01:33;4.40;;;2.10;;
64834;SDS011;51293;59.296;18.006;2022-07-04T11:03:58;9.13;;;2.22;;
64834;SDS011;51293;59.296;18.006;2022-07-04T11:06:49;6.22;;;2.00;;
64834;SDS011;51293;59.296;18.006;2022-07-04T11:09:18;6.67;;;2.00;;
64834;SDS011;51293;59.296;18.006;2022-07-04T11:11:55;9.68;;;2.25;;
64834;SDS011;51293;59.296;18.006;2022-07-04T11:14:30;4.78;;;1.60;;
64834;SDS011;51293;59.296;18.006;2022-07-04T11:17:00;5.75;;;1.80;;
64834;SDS011;51293;59.296;18.006;2022-07-04T11:19:27;7.53;;;1.80;;
64834;SDS011;51293;59.296;18.006;2022-07-04T11:21:56;4.97;;;1.58;;
64834;SDS011;51293;59.296;18.006;2022-07-04T11:24:24;6.05;;;1.55;;
64834;SDS011;51293;59.296;18.006;2022-07-04T11:26:51;3.50;;;1.40;;
64834;SDS011;51293;59.296;18.006;2022-07-04T11:29:16;3.70;;;1.40;;
64834;SDS011;51293;59.296;18.006;2022-07-04T11:31:43;6.43;;;1.63;;
64834;SDS011;51293;59.296;18.006;2022-07-04T11:34:11;4.90;;;1.70;;
64834;SDS011;51293;59.296;18.006;2022-07-04T11:36:38;5.18;;;1.50;;
64834;SDS011;51293;59.296;18.006;2022-07-04T11:39:05;8.18;;;1.48;;
64834;SDS011;51293;59.296;18.006;2022-07-04T11:41:36;6.13;;;1.40;;
64834;SDS011;51293;59.296;18.006;2022-07-04T11:44:29;4.28;;;1.65;;
64834;SDS011;51293;59.296;18.006;2022-07-04T11:47:15;5.03;;;1.80;;
64834;SDS011;51293;59.296;18.006;2022-07-04T11:49:54;9.50;;;2.13;;
64834;SDS011;51293;59.296;18.006;2022-07-04T11:53:02;5.30;;;1.70;;
64834;SDS011;51293;59.296;18.006;2022-07-04T11:55:12;6.38;;;1.85;;
64834;SDS011;51293;59.296;18.006;2022-07-04T11:57:48;4.85;;;1.77;;
64834;SDS011;51293;59.296;18.006;2022-07-04T12:00:21;10.35;;;2.47;;
64834;SDS011;51293;59.296;18.006;2022-07-04T12:02:50;11.68;;;2.55;;
64834;SDS011;51293;59.296;18.006;2022-07-04T12:05:16;43.88;;;3.78;;
64834;SDS011;51293;59.296;18.006;2022-07-04T12:07:43;18.13;;;2.90;;
64834;SDS011;51293;59.296;18.006;2022-07-04T12:10:12;10.93;;;2.78;;
64834;SDS011;51293;59.296;18.006;2022-07-04T12:13:21;12.88;;;3.47;;
64834;SDS011;51293;59.296;18.006;2022-07-04T12:18:03;3.78;;;3.22;;
64834;SDS011;51293;59.296;18.006;2022-07-04T12:20:31;8.35;;;3.70;;
64834;SDS011;51293;59.296;18.006;2022-07-04T12:22:57;6.70;;;4.43;;
64834;SDS011;51293;59.296;18.006;2022-07-04T12:28:04;9.60;;;6.10;;
64834;SDS011;51293;59.296;18.006;2022-07-04T12:30:35;9.32;;;5.22;;
64834;SDS011;51293;59.296;18.006;2022-07-04T12:33:07;7.68;;;3.75;;
64834;SDS011;51293;59.296;18.006;2022-07-04T12:35:35;4.13;;;2.53;;
64834;SDS011;51293;59.296;18.006;2022-07-04T12:38:04;3.50;;;2.10;;
64834;SDS011;51293;59.296;18.006;2022-07-04T12:40:30;5.90;;;1.83;;
64834;SDS011;51293;59.296;18.006;2022-07-04T12:42:56;2.92;;;1.63;;
64834;SDS011;51293;59.296;18.006;2022-07-04T12:45:22;2.28;;;1.50;;
64834;SDS011;51293;59.296;18.006;2022-07-04T12:47:48;4.10;;;1.50;;
64834;SDS011;51293;59.296;18.006;2022-07-04T12:50:14;1.85;;;1.20;;
64834;SDS011;51293;59.296;18.006;2022-07-04T12:52:39;2.35;;;1.10;;
64834;SDS011;51293;59.296;18.006;2022-07-04T12:55:08;2.35;;;1.20;;
64834;SDS011;51293;59.296;18.006;2022-07-04T12:57:36;2.10;;;1.20;;
64834;SDS011;51293;59.296;18.006;2022-07-04T13:00:02;2.42;;;1.25;;
64834;SDS011;51293;59.296;18.006;2022-07-04T13:02:29;1.95;;;1.30;;
64834;SDS011;51293;59.296;18.006;2022-07-04T13:04:54;3.20;;;1.30;;
64834;SDS011;51293;59.296;18.006;2022-07-04T13:07:20;1.58;;;1.20;;
64834;SDS011;51293;59.296;18.006;2022-07-04T13:09:45;2.13;;;1.23;;
64834;SDS011;51293;59.296;18.006;2022-07-04T13:12:11;2.35;;;1.20;;
64834;SDS011;51293;59.296;18.006;2022-07-04T13:14:50;1.92;;;1.10;;
64834;SDS011;51293;59.296;18.006;2022-07-04T13:17:25;2.58;;;1.10;;
64834;SDS011;51293;59.296;18.006;2022-07-04T13:19:51;1.42;;;1.20;;
64834;SDS011;51293;59.296;18.006;2022-07-04T13:22:21;1.73;;;1.05;;
64834;SDS011;51293;59.296;18.006;2022-07-04T13:24:47;1.23;;;0.93;;
64834;SDS011;51293;59.296;18.006;2022-07-04T13:27:14;2.40;;;1.40;;
64834;SDS011;51293;59.296;18.006;2022-07-04T13:29:39;2.58;;;1.20;;
64834;SDS011;51293;59.296;18.006;2022-07-04T13:32:05;5.47;;;1.30;;
64834;SDS011;51293;59.296;18.006;2022-07-04T13:34:31;2.33;;;1.20;;
64834;SDS011;51293;59.296;18.006;2022-07-04T13:36:56;3.10;;;1.27;;
64834;SDS011;51293;59.296;18.006;2022-07-04T13:39:22;2.33;;;1.05;;
64834;SDS011;51293;59.296;18.006;2022-07-04T13:41:48;2.72;;;1.25;;
64834;SDS011;51293;59.296;18.006;2022-07-04T13:44:14;2.55;;;1.30;;
64834;SDS011;51293;59.296;18.006;2022-07-04T13:46:41;3.35;;;1.50;;
64834;SDS011;51293;59.296;18.006;2022-07-04T13:49:08;3.83;;;1.40;;
64834;SDS011;51293;59.296;18.006;2022-07-04T13:51:34;3.33;;;1.40;;
64834;SDS011;51293;59.296;18.006;2022-07-04T13:53:59;3.63;;;1.50;;
64834;SDS011;51293;59.296;18.006;2022-07-04T13:56:25;5.55;;;1.80;;
64834;SDS011;51293;59.296;18.006;2022-07-04T13:58:51;3.88;;;1.60;;
64834;SDS011;51293;59.296;18.006;2022-07-04T14:01:17;4.53;;;1.85;;
64834;SDS011;51293;59.296;18.006;2022-07-04T14:03:44;3.33;;;1.80;;
64834;SDS011;51293;59.296;18.006;2022-07-04T14:06:10;4.57;;;1.90;;
64834;SDS011;51293;59.296;18.006;2022-07-04T14:08:36;4.47;;;1.98;;
64834;SDS011;51293;59.296;18.006;2022-07-04T14:11:02;4.32;;;1.98;;
64834;SDS011;51293;59.296;18.006;2022-07-04T14:13:27;3.80;;;2.30;;
64834;SDS011;51293;59.296;18.006;2022-07-04T14:15:53;4.82;;;2.50;;
64834;SDS011;51293;59.296;18.006;2022-07-04T14:18:19;4.47;;;2.35;;
64834;SDS011;51293;59.296;18.006;2022-07-04T14:20:45;5.65;;;2.30;;
64834;SDS011;51293;59.296;18.006;2022-07-04T14:23:10;5.72;;;1.52;;
64834;SDS011;51293;59.296;18.006;2022-07-04T14:25:36;3.40;;;1.23;;
64834;SDS011;51293;59.296;18.006;2022-07-04T14:28:02;1.60;;;1.00;;
64834;SDS011;51293;59.296;18.006;2022-07-04T14:30:28;0.95;;;0.93;;
64834;SDS011;51293;59.296;18.006;2022-07-04T14:32:53;3.13;;;1.13;;
64834;SDS011;51293;59.296;18.006;2022-07-04T14:35:18;3.28;;;1.08;;
64834;SDS011;51293;59.296;18.006;2022-07-04T14:37:44;1.33;;;0.90;;
64834;SDS011;51293;59.296;18.006;2022-07-04T14:40:09;2.63;;;0.98;;
64834;SDS011;51293;59.296;18.006;2022-07-04T14:42:35;0.93;;;0.90;;
64834;SDS011;51293;59.296;18.006;2022-07-04T14:45:00;2.88;;;1.20;;
64834;SDS011;51293;59.296;18.006;2022-07-04T14:47:26;2.47;;;1.10;;
64834;SDS011;51293;59.296;18.006;2022-07-04T14:49:51;4.88;;;1.35;;
64834;SDS011;51293;59.296;18.006;2022-07-04T14:52:17;2.42;;;1.38;;
64834;SDS011;51293;59.296;18.006;2022-07-04T14:54:42;2.22;;;1.33;;